createdAt,value
2022-12-29T00:02:14.521Z,95800.38
2022-12-29T00:04:40.884Z,95821.00
2022-12-29T00:07:07.304Z,95818.66
2022-12-29T00:09:34.174Z,95805.09
2022-12-29T00:12:01.126Z,95787.78
2022-12-29T00:14:46.148Z,95781.72
2022-12-29T00:17:12.600Z,95767.69
2022-12-29T00:19:57.711Z,95780.44
2022-12-29T00:22:42.802Z,95765.75
2022-12-29T00:25:10.116Z,95736.66
2022-12-29T00:27:55.196Z,95734.69
2022-12-29T00:30:41.489Z,95747.13
2022-12-29T00:33:31.117Z,95747.81
2022-12-29T00:36:00.894Z,95739.81
2022-12-29T00:38:45.874Z,95747.47
2022-12-29T00:41:30.855Z,95764.50
2022-12-29T00:44:06.000Z,95769.44
2022-12-29T00:46:33.840Z,95800.16
2022-12-29T00:49:18.915Z,95798.53
2022-12-29T00:51:45.707Z,95793.31
2022-12-29T00:54:12.320Z,95802.13
2022-12-29T00:56:38.768Z,95808.38
2022-12-29T00:59:08.126Z,95825.72
2022-12-29T01:01:36.058Z,95827.34
2022-12-29T01:04:04.573Z,95837.47
2022-12-29T01:06:31.720Z,95850.56
2022-12-29T01:09:16.742Z,95834.06
2022-12-29T01:11:43.144Z,95824.94
2022-12-29T01:14:09.529Z,95833.59
2022-12-29T01:16:37.400Z,95825.59
2022-12-29T01:19:04.386Z,95807.44
2022-12-29T01:21:30.866Z,95795.03
2022-12-29T01:23:57.240Z,95784.72
2022-12-29T01:26:23.798Z,95782.63
2022-12-29T01:28:50.173Z,95797.19
2022-12-29T01:31:16.635Z,95781.47
2022-12-29T01:33:43.661Z,95771.03
2022-12-29T01:36:11.837Z,95747.63
2022-12-29T01:38:38.559Z,95732.78
2022-12-29T01:41:05.227Z,95707.13
2022-12-29T01:43:44.764Z,95690.09
2022-12-29T01:46:17.499Z,95649.25
2022-12-29T01:48:44.607Z,95617.22
2022-12-29T01:51:10.971Z,95578.47
2022-12-29T01:53:37.392Z,95582.38
2022-12-29T01:56:06.825Z,95571.13
2022-12-29T01:58:35.057Z,95573.75
2022-12-29T02:01:01.661Z,95555.75
2022-12-29T02:03:28.204Z,95535.81
2022-12-29T02:06:03.752Z,95512.75
2022-12-29T02:08:30.583Z,95479.28
2022-12-29T02:10:57.488Z,95451.47
2022-12-29T02:13:27.641Z,95412.75
2022-12-29T02:16:13.117Z,95401.81
2022-12-29T02:19:01.186Z,95364.25
2022-12-29T02:22:03.305Z,95334.50
2022-12-29T02:24:49.276Z,95294.00
2022-12-29T02:27:36.893Z,95278.31
2022-12-29T02:30:25.125Z,95262.00
2022-12-29T02:33:28.758Z,95215.94
2022-12-29T02:36:02.020Z,95189.81
2022-12-29T02:38:54.653Z,95179.00
2022-12-29T02:41:24.764Z,95168.53
2022-12-29T02:44:14.465Z,95146.00
2022-12-29T02:46:55.451Z,95126.09
2022-12-29T02:50:13.048Z,95127.72
2022-12-29T02:53:00.864Z,95127.38
2022-12-29T02:55:27.422Z,95135.34
2022-12-29T02:58:19.629Z,95144.28
2022-12-29T03:00:58.107Z,95157.66
2022-12-29T03:03:57.002Z,95160.59
2022-12-29T03:06:34.209Z,95183.44
2022-12-29T03:09:28.070Z,95186.84
2022-12-29T03:12:11.096Z,95192.59
2022-12-29T03:15:19.771Z,95181.75
2022-12-29T03:17:55.773Z,95226.38
2022-12-29T03:20:25.429Z,95237.34
2022-12-29T03:22:52.227Z,95241.25
2022-12-29T03:25:27.114Z,95253.97
2022-12-29T03:28:02.197Z,95268.00
2022-12-29T03:30:29.489Z,95280.06
2022-12-29T03:32:57.467Z,95301.31
2022-12-29T03:35:25.942Z,95311.78
2022-12-29T03:38:13.709Z,95291.16
2022-12-29T03:40:41.790Z,95265.34
2022-12-29T03:43:08.130Z,95234.59
2022-12-29T03:45:34.532Z,95210.03
2022-12-29T03:48:00.875Z,95200.53
2022-12-29T03:50:27.223Z,95219.28
2022-12-29T03:52:53.777Z,95235.97
2022-12-29T03:55:20.149Z,95224.34
2022-12-29T03:57:46.517Z,95239.66
2022-12-29T04:00:13.628Z,95205.00
2022-12-29T04:02:40.399Z,95190.66
2022-12-29T04:05:07.336Z,95179.47
2022-12-29T04:07:34.121Z,95171.88
2022-12-29T04:10:00.462Z,95131.59
2022-12-29T04:12:26.901Z,95135.34
2022-12-29T04:14:53.298Z,95141.25
2022-12-29T04:17:20.116Z,95121.13
2022-12-29T04:19:46.533Z,95111.47
2022-12-29T04:22:13.174Z,95110.22
2022-12-29T04:24:39.723Z,95082.75
2022-12-29T04:27:06.172Z,95080.50
2022-12-29T04:29:32.730Z,95070.03
2022-12-29T04:31:59.078Z,95081.47
2022-12-29T04:34:25.434Z,95108.56
2022-12-29T04:36:52.045Z,95131.94
2022-12-29T04:39:18.405Z,95143.88
2022-12-29T04:41:44.826Z,95174.78
2022-12-29T04:44:11.228Z,95208.25
2022-12-29T04:46:37.629Z,95242.94
2022-12-29T04:49:09.261Z,95267.13
2022-12-29T04:51:36.405Z,95289.38
2022-12-29T04:54:02.810Z,95313.56
2022-12-29T04:56:29.183Z,95344.66
2022-12-29T04:58:55.774Z,95369.69
2022-12-29T05:01:22.340Z,95398.00
2022-12-29T05:03:51.027Z,95422.53
2022-12-29T05:06:17.468Z,95437.59
2022-12-29T05:08:45.044Z,95441.53
2022-12-29T05:11:11.379Z,95448.41
2022-12-29T05:13:37.748Z,95427.63
2022-12-29T05:16:04.500Z,95442.69
2022-12-29T05:18:30.929Z,95461.50
2022-12-29T05:20:57.539Z,95449.72
2022-12-29T05:23:23.896Z,95456.78
2022-12-29T05:25:50.327Z,95464.47
2022-12-29T05:28:16.939Z,95473.47
2022-12-29T05:30:44.994Z,95471.69
2022-12-29T05:33:12.563Z,95458.94
2022-12-29T05:35:39.029Z,95447.47
2022-12-29T05:38:05.393Z,95461.19
2022-12-29T05:40:31.748Z,95471.34
2022-12-29T05:42:58.156Z,95485.44
2022-12-29T05:45:24.517Z,95488.69
2022-12-29T05:47:50.870Z,95515.19
2022-12-29T05:50:17.563Z,95518.00
2022-12-29T05:52:44.562Z,95550.53
2022-12-29T05:55:11.020Z,95563.47
2022-12-29T05:57:37.517Z,95572.00
2022-12-29T06:00:05.660Z,95596.50
2022-12-29T06:02:32.102Z,95630.72
2022-12-29T06:04:58.663Z,95655.91
2022-12-29T06:07:25.199Z,95690.31
2022-12-29T06:09:51.584Z,95696.53
2022-12-29T06:12:18.154Z,95662.47
2022-12-29T06:14:44.527Z,95609.75
2022-12-29T06:17:10.936Z,95584.34
2022-12-29T06:19:37.308Z,95531.16
2022-12-29T06:22:03.845Z,95373.97
2022-12-29T06:24:30.281Z,95298.72
2022-12-29T06:26:56.652Z,95300.97
2022-12-29T06:29:23.013Z,95301.63
2022-12-29T06:31:50.372Z,95304.06
2022-12-29T06:34:16.944Z,95296.41
2022-12-29T06:36:43.681Z,95278.84
2022-12-29T06:39:11.375Z,95243.06
2022-12-29T06:41:37.983Z,95211.97
2022-12-29T06:44:04.463Z,95152.72
2022-12-29T06:46:30.894Z,95123.66
2022-12-29T06:48:57.547Z,95087.25
2022-12-29T06:51:23.896Z,95103.72
2022-12-29T06:53:50.273Z,95125.13
2022-12-29T06:56:16.711Z,95125.13
2022-12-29T06:58:43.050Z,95126.75
2022-12-29T07:01:09.507Z,95126.75
2022-12-29T07:03:36.226Z,95150.25
2022-12-29T07:06:02.676Z,95183.31
2022-12-29T07:08:29.132Z,95208.78
2022-12-29T07:10:55.559Z,95246.88
2022-12-29T07:13:22.002Z,95269.84
2022-12-29T07:15:48.352Z,95286.34
2022-12-29T07:18:14.914Z,95266.09
2022-12-29T07:20:41.285Z,95248.75
2022-12-29T07:23:07.730Z,95270.06
2022-12-29T07:25:36.145Z,95280.19
2022-12-29T07:28:03.664Z,95285.59
2022-12-29T07:30:30.141Z,95288.94
2022-12-29T07:32:56.560Z,95282.16
2022-12-29T07:35:22.947Z,95304.78
2022-12-29T07:37:49.292Z,95311.28
2022-12-29T07:40:15.885Z,95312.63
2022-12-29T07:42:42.290Z,95304.28
2022-12-29T07:45:10.211Z,95305.47
2022-12-29T07:47:36.801Z,95300.59
2022-12-29T07:50:03.445Z,95305.75
2022-12-29T07:52:29.807Z,95350.78
2022-12-29T07:54:56.255Z,95364.03
2022-12-29T07:57:28.011Z,95349.00
2022-12-29T07:59:57.833Z,95332.94
2022-12-29T08:02:24.416Z,95346.34
2022-12-29T08:04:50.866Z,95393.16
2022-12-29T08:07:17.269Z,95430.44
2022-12-29T08:09:43.610Z,95473.66
2022-12-29T08:12:11.285Z,95507.41
2022-12-29T08:14:37.724Z,95498.25
2022-12-29T08:17:04.153Z,95490.41
2022-12-29T08:19:30.494Z,95472.03
2022-12-29T08:21:57.089Z,95446.50
2022-12-29T08:24:23.514Z,95388.50
2022-12-29T08:26:50.524Z,95337.44
2022-12-29T08:29:17.113Z,95257.91
2022-12-29T08:31:44.246Z,95170.94
2022-12-29T08:34:10.682Z,95134.25
2022-12-29T08:36:37.136Z,95130.03
2022-12-29T08:39:03.544Z,95135.53
2022-12-29T08:41:29.914Z,95063.34
2022-12-29T08:43:56.499Z,94919.31
2022-12-29T08:46:23.066Z,94855.59
2022-12-29T08:48:49.488Z,94806.81
2022-12-29T08:51:20.129Z,94735.84
2022-12-29T08:53:49.290Z,94694.69
2022-12-29T08:56:15.665Z,94692.72
2022-12-29T08:58:42.217Z,94685.66
2022-12-29T09:01:08.699Z,94635.47
2022-12-29T09:04:12.970Z,94656.84
2022-12-29T09:06:21.785Z,94695.75
2022-12-29T09:08:48.150Z,94731.84
2022-12-29T09:11:22.618Z,94743.19
2022-12-29T09:13:49.029Z,94619.84
2022-12-29T09:16:15.865Z,94515.41
2022-12-29T09:18:42.416Z,94454.59
2022-12-29T09:21:09.947Z,94395.16
2022-12-29T09:23:36.422Z,94329.28
2022-12-29T09:26:03.123Z,94298.28
2022-12-29T09:28:29.987Z,94247.91
2022-12-29T09:30:56.523Z,94190.28
2022-12-29T09:33:22.893Z,94133.50
2022-12-29T09:35:53.975Z,93937.97
2022-12-29T09:38:21.162Z,93700.31
2022-12-29T09:40:51.427Z,93391.00
2022-12-29T09:43:20.819Z,93058.81
2022-12-29T09:46:02.515Z,92744.38
2022-12-29T09:48:31.294Z,92501.16
2022-12-29T09:51:00.091Z,92270.88
2022-12-29T09:54:08.350Z,92099.91
2022-12-29T09:56:34.701Z,91901.47
2022-12-29T09:59:05.666Z,91768.44
2022-12-29T10:01:38.433Z,91657.91
2022-12-29T10:04:06.030Z,91528.03
2022-12-29T10:07:28.411Z,91414.38
2022-12-29T10:10:02.253Z,91196.25
2022-12-29T10:13:13.683Z,91055.97
2022-12-29T10:15:48.802Z,90932.13
2022-12-29T10:18:39.953Z,90847.94
2022-12-29T10:21:18.475Z,90783.59
2022-12-29T10:23:46.751Z,90768.91
2022-12-29T10:26:15.636Z,90783.50
2022-12-29T10:28:51.432Z,90842.41
2022-12-29T10:31:21.919Z,90978.78
2022-12-29T10:33:55.164Z,91279.84
2022-12-29T10:36:39.855Z,91731.75
2022-12-29T10:39:27.946Z,92223.34
2022-12-29T10:42:02.199Z,92677.41
2022-12-29T10:44:30.888Z,92890.88
2022-12-29T10:47:01.106Z,93216.53
2022-12-29T10:49:27.910Z,93458.34
2022-12-29T10:51:55.980Z,93661.50
2022-12-29T10:55:00.947Z,93782.94
2022-12-29T10:57:45.342Z,93932.94
2022-12-29T11:00:17.220Z,94042.47
2022-12-29T11:03:07.859Z,94133.69
2022-12-29T11:05:42.107Z,94320.88
2022-12-29T11:08:20.234Z,94455.91
2022-12-29T11:10:47.155Z,94479.69
2022-12-29T11:13:18.282Z,94535.09
2022-12-29T11:15:46.500Z,94612.50
2022-12-29T11:18:23.033Z,94694.53
2022-12-29T11:20:51.214Z,94802.94
2022-12-29T11:23:36.882Z,94843.06
2022-12-29T11:26:14.356Z,94847.75
2022-12-29T11:28:42.022Z,94894.91
2022-12-29T11:31:08.916Z,95004.16
2022-12-29T11:33:36.527Z,94997.47
2022-12-29T11:36:19.024Z,94990.78
2022-12-29T11:38:53.174Z,94929.09
2022-12-29T11:41:22.198Z,94992.06
2022-12-29T11:43:48.570Z,95034.50
2022-12-29T11:46:17.712Z,95050.50
2022-12-29T11:48:44.077Z,95023.03
2022-12-29T11:51:10.911Z,95079.72
2022-12-29T11:53:37.459Z,95129.50
2022-12-29T11:56:06.101Z,95223.00
2022-12-29T11:58:37.682Z,95225.78
2022-12-29T12:01:08.337Z,95059.19
2022-12-29T12:03:36.470Z,94801.03
2022-12-29T12:06:03.016Z,94528.56
2022-12-29T12:08:40.471Z,94383.47
2022-12-29T12:11:15.720Z,94243.38
2022-12-29T12:13:44.641Z,94151.41
2022-12-29T12:16:19.503Z,94126.25
2022-12-29T12:18:50.981Z,94157.25
2022-12-29T12:21:19.971Z,94195.91
2022-12-29T12:24:01.464Z,94478.41
2022-12-29T12:27:06.892Z,94752.31
2022-12-29T12:29:51.408Z,95051.41
2022-12-29T12:32:48.719Z,95351.94
2022-12-29T12:35:21.810Z,95487.84
2022-12-29T12:38:06.925Z,95651.16
2022-12-29T12:40:51.774Z,95805.25
2022-12-29T12:43:50.860Z,95841.63
2022-12-29T12:46:17.481Z,95857.06
2022-12-29T12:48:58.998Z,95937.00
2022-12-29T12:52:07.828Z,95999.94
2022-12-29T12:54:40.125Z,96042.81
2022-12-29T12:57:13.513Z,96050.66
2022-12-29T12:59:48.830Z,96087.63
2022-12-29T13:02:37.722Z,96141.19
2022-12-29T13:05:26.813Z,96176.53
2022-12-29T13:08:20.033Z,96167.47
2022-12-29T13:10:53.811Z,96231.03
2022-12-29T13:13:23.193Z,96253.00
2022-12-29T13:16:14.463Z,96229.69
2022-12-29T13:19:08.115Z,96236.28
2022-12-29T13:21:58.677Z,96225.13
2022-12-29T13:24:47.730Z,96192.03
2022-12-29T13:27:18.735Z,96216.31
2022-12-29T13:30:03.493Z,96258.75
2022-12-29T13:32:39.112Z,96321.03
2022-12-29T13:35:19.854Z,96370.69
2022-12-29T13:37:55.288Z,96403.78
2022-12-29T13:40:26.549Z,96412.63
2022-12-29T13:42:53.415Z,96404.09
2022-12-29T13:45:25.031Z,96418.97
2022-12-29T13:47:56.463Z,96440.47
2022-12-29T13:50:24.247Z,96416.50
2022-12-29T13:53:01.949Z,96407.13
2022-12-29T13:55:31.239Z,96471.25
2022-12-29T13:58:09.803Z,96468.63
2022-12-29T14:00:58.750Z,96458.44
2022-12-29T14:03:35.050Z,96456.13
2022-12-29T14:06:20.813Z,96481.63
2022-12-29T14:08:47.415Z,96505.34
2022-12-29T14:11:15.764Z,96528.81
2022-12-29T14:13:44.164Z,96575.69
2022-12-29T14:16:31.309Z,96577.34
2022-12-29T14:19:05.476Z,96650.47
2022-12-29T14:21:32.122Z,96661.06
2022-12-29T14:24:35.888Z,96729.75
2022-12-29T14:27:11.403Z,96755.00
2022-12-29T14:29:40.810Z,96802.19
2022-12-29T14:32:25.581Z,96831.72
2022-12-29T14:34:55.845Z,96865.09
2022-12-29T14:37:33.100Z,96889.09
2022-12-29T14:40:05.952Z,96906.75
2022-12-29T14:42:32.421Z,96899.88
2022-12-29T14:45:00.475Z,96917.81
2022-12-29T14:47:38.048Z,96909.22
2022-12-29T14:50:11.673Z,96928.81
2022-12-29T14:52:47.519Z,96935.97
2022-12-29T14:55:16.687Z,96960.97
2022-12-29T14:57:49.724Z,96960.00
2022-12-29T15:00:17.504Z,96944.53
2022-12-29T15:02:48.453Z,96960.53
2022-12-29T15:05:26.797Z,96960.81
2022-12-29T15:07:53.551Z,96955.81
2022-12-29T15:10:20.830Z,96986.16
2022-12-29T15:12:52.684Z,96989.75
2022-12-29T15:15:26.088Z,96989.06
2022-12-29T15:17:52.520Z,96997.91
2022-12-29T15:20:27.468Z,97003.28
2022-12-29T15:22:58.999Z,97013.75
2022-12-29T15:25:26.186Z,97020.66
2022-12-29T15:27:53.801Z,97026.13
2022-12-29T15:30:20.328Z,97001.88
2022-12-29T15:32:47.410Z,97012.34
2022-12-29T15:35:35.818Z,97017.84
2022-12-29T15:38:17.775Z,97007.66
2022-12-29T15:40:44.903Z,97005.97
2022-12-29T15:43:34.627Z,96993.84
2022-12-29T15:46:01.923Z,97023.22
2022-12-29T15:48:28.343Z,97070.25
2022-12-29T15:50:54.736Z,97054.81
2022-12-29T15:53:34.480Z,97045.66
2022-12-29T15:56:09.498Z,97039.88
2022-12-29T15:58:46.199Z,97055.59
2022-12-29T16:01:19.641Z,97070.34
2022-12-29T16:03:46.337Z,97088.66
2022-12-29T16:06:27.663Z,97066.31
2022-12-29T16:09:01.537Z,97103.66
2022-12-29T16:11:31.942Z,97108.91
2022-12-29T16:13:58.351Z,97102.97
2022-12-29T16:16:36.841Z,97102.97
2022-12-29T16:19:27.898Z,97090.41
2022-12-29T16:21:54.336Z,97079.22
2022-12-29T16:24:23.673Z,97061.84
2022-12-29T16:26:52.441Z,96960.06
2022-12-29T16:29:19.041Z,96865.78
2022-12-29T16:31:52.552Z,96767.09
2022-12-29T16:34:31.971Z,96691.84
2022-12-29T16:37:03.580Z,96578.63
2022-12-29T16:39:32.548Z,96466.38
2022-12-29T16:41:58.981Z,96354.16
2022-12-29T16:44:30.136Z,96311.25
2022-12-29T16:47:01.251Z,96306.28
2022-12-29T16:49:27.868Z,96302.31
2022-12-29T16:51:57.210Z,96263.06
2022-12-29T16:54:57.201Z,96188.09
2022-12-29T16:57:25.698Z,96151.78
2022-12-29T16:59:53.770Z,96097.84
2022-12-29T17:02:21.323Z,96084.13
2022-12-29T17:04:50.493Z,96108.59
2022-12-29T17:07:18.690Z,96102.41
2022-12-29T17:09:45.124Z,96151.94
2022-12-29T17:12:24.147Z,96190.72
2022-12-29T17:14:59.016Z,96223.75
2022-12-29T17:17:36.606Z,96263.34
2022-12-29T17:20:18.620Z,96267.78
2022-12-29T17:22:45.168Z,96315.66
2022-12-29T17:25:14.563Z,96343.47
2022-12-29T17:27:47.036Z,96345.13
2022-12-29T17:30:15.142Z,96359.16
2022-12-29T17:32:41.766Z,96371.25
2022-12-29T17:35:18.248Z,96374.56
2022-12-29T17:37:44.633Z,96395.88
2022-12-29T17:40:14.823Z,96426.03
2022-12-29T17:42:43.987Z,96427.97
2022-12-29T17:45:18.196Z,96425.47
2022-12-29T17:47:44.698Z,96389.00
2022-12-29T17:50:21.229Z,96344.81
2022-12-29T17:52:53.001Z,96318.97
2022-12-29T17:55:20.301Z,96309.47
2022-12-29T17:57:46.715Z,96273.81
2022-12-29T18:00:20.733Z,96254.97
2022-12-29T18:02:47.679Z,96267.22
2022-12-29T18:05:20.311Z,96263.66
2022-12-29T18:07:46.907Z,96276.88
2022-12-29T18:10:14.328Z,96284.56
2022-12-29T18:12:42.310Z,96264.91
2022-12-29T18:15:17.955Z,96276.16
2022-12-29T18:17:44.477Z,96244.41
2022-12-29T18:20:10.890Z,96260.94
2022-12-29T18:22:37.327Z,96266.81
2022-12-29T18:25:32.779Z,96258.97
2022-12-29T18:27:59.376Z,96250.47
2022-12-29T18:30:25.803Z,96266.16
2022-12-29T18:32:52.185Z,96257.34
2022-12-29T18:35:38.718Z,96291.31
2022-12-29T18:38:06.057Z,96314.59
2022-12-29T18:40:33.959Z,96331.25
2022-12-29T18:43:00.705Z,96345.97
2022-12-29T18:45:27.445Z,96356.41
2022-12-29T18:47:53.842Z,96368.78
2022-12-29T18:50:20.223Z,96410.34
2022-12-29T18:52:46.642Z,96439.13
2022-12-29T18:55:17.698Z,96441.19
2022-12-29T18:57:44.842Z,96480.56
2022-12-29T19:00:12.223Z,96487.69
2022-12-29T19:02:38.669Z,96516.44
2022-12-29T19:05:10.405Z,96532.97
2022-12-29T19:07:36.769Z,96553.06
2022-12-29T19:10:03.358Z,96585.97
2022-12-29T19:12:29.752Z,96604.13
2022-12-29T19:14:56.109Z,96610.31
2022-12-29T19:17:22.697Z,96628.38
2022-12-29T19:19:49.106Z,96620.66
2022-12-29T19:22:15.510Z,96603.31
2022-12-29T19:24:41.950Z,96618.16
2022-12-29T19:27:08.565Z,96612.66
2022-12-29T19:29:35.046Z,96628.38
2022-12-29T19:32:01.517Z,96655.91
2022-12-29T19:34:27.943Z,96660.16
2022-12-29T19:36:54.335Z,96676.81
2022-12-29T19:39:20.883Z,96722.53
2022-12-29T19:41:47.450Z,96770.06
2022-12-29T19:44:13.845Z,96849.09
2022-12-29T19:46:40.281Z,96875.13
2022-12-29T19:49:06.933Z,96908.16
2022-12-29T19:51:33.349Z,96959.78
2022-12-29T19:53:59.799Z,97018.50
2022-12-29T19:56:26.202Z,97102.56
2022-12-29T19:58:52.605Z,97133.03
2022-12-29T20:01:22.880Z,97146.47
2022-12-29T20:03:49.933Z,97150.84
2022-12-29T20:06:16.511Z,97156.09
2022-12-29T20:08:42.898Z,97126.84
2022-12-29T20:11:13.007Z,97124.56
2022-12-29T20:13:40.048Z,97110.81
2022-12-29T20:16:08.086Z,97092.59
2022-12-29T20:18:37.381Z,97091.91
2022-12-29T20:21:09.169Z,97074.81
2022-12-29T20:23:37.951Z,97077.66
2022-12-29T20:26:04.807Z,97085.63
2022-12-29T20:28:31.152Z,97089.19
2022-12-29T20:31:06.523Z,97119.03
2022-12-29T20:33:33.230Z,97120.22
2022-12-29T20:36:10.979Z,97146.38
2022-12-29T20:38:37.445Z,97177.75
2022-12-29T20:41:04.474Z,97184.91
2022-12-29T20:43:30.851Z,97186.09
2022-12-29T20:45:57.296Z,97198.69
2022-12-29T20:48:23.706Z,97242.66
2022-12-29T20:50:50.218Z,97277.13
2022-12-29T20:53:16.576Z,97258.13
2022-12-29T20:55:42.971Z,97250.88
2022-12-29T20:58:25.375Z,97232.91
2022-12-29T21:00:52.408Z,97230.31
2022-12-29T21:03:19.528Z,97197.50
2022-12-29T21:05:46.271Z,97172.06
2022-12-29T21:08:12.678Z,97144.41
2022-12-29T21:10:39.084Z,97111.50
2022-12-29T21:13:05.751Z,97077.84
2022-12-29T21:15:32.414Z,97069.44
2022-12-29T21:17:59.019Z,97045.91
2022-12-29T21:20:31.968Z,97068.97
2022-12-29T21:23:02.236Z,97112.66
2022-12-29T21:25:38.742Z,97138.66
2022-12-29T21:28:14.010Z,97155.63
2022-12-29T21:30:40.575Z,97162.97
2022-12-29T21:33:06.995Z,97181.00
2022-12-29T21:35:39.681Z,97200.22
2022-12-29T21:38:06.916Z,97187.41
2022-12-29T21:40:37.157Z,97189.31
2022-12-29T21:43:03.716Z,97164.97
2022-12-29T21:45:31.709Z,97148.81
2022-12-29T21:48:23.961Z,97120.31
2022-12-29T21:51:13.839Z,97094.56
2022-12-29T21:53:44.483Z,97068.09
2022-12-29T21:56:15.804Z,97037.34
2022-12-29T21:59:02.325Z,97020.25
2022-12-29T22:01:48.367Z,96989.41
2022-12-29T22:04:34.115Z,96934.16
2022-12-29T22:07:19.902Z,96898.44
2022-12-29T22:10:04.558Z,96876.75
2022-12-29T22:12:50.524Z,96869.84
2022-12-29T22:15:17.069Z,96857.53
2022-12-29T22:17:48.814Z,96876.00
2022-12-29T22:20:16.045Z,96904.50
2022-12-29T22:22:42.444Z,96924.41
2022-12-29T22:25:09.242Z,96933.88
2022-12-29T22:27:35.666Z,96939.38
2022-12-29T22:30:02.204Z,96971.59
2022-12-29T22:32:28.633Z,97025.69
2022-12-29T22:34:54.974Z,97059.59
2022-12-29T22:37:21.729Z,97095.28
2022-12-29T22:39:48.108Z,97114.41
2022-12-29T22:42:14.469Z,97158.75
2022-12-29T22:44:41.109Z,97179.41
2022-12-29T22:47:07.500Z,97199.09
2022-12-29T22:49:33.863Z,97207.66
2022-12-29T22:52:00.419Z,97213.84
2022-12-29T22:54:26.848Z,97222.38
2022-12-29T22:56:53.259Z,97217.16
2022-12-29T22:59:19.729Z,97219.75
2022-12-29T23:01:46.296Z,97259.75
2022-12-29T23:04:59.320Z,97274.56
2022-12-29T23:06:59.431Z,97310.91
2022-12-29T23:09:25.779Z,97358.47
2022-12-29T23:11:53.281Z,97394.94
2022-12-29T23:14:19.717Z,97416.53
2022-12-29T23:16:46.220Z,97430.94
2022-12-29T23:19:12.920Z,97446.78
2022-12-29T23:21:39.571Z,97454.75
2022-12-29T23:24:06.574Z,97435.75
2022-12-29T23:26:37.738Z,97414.84
2022-12-29T23:29:06.136Z,97415.06
2022-12-29T23:31:32.676Z,97415.06
2022-12-29T23:34:00.063Z,97394.19
2022-12-29T23:36:27.047Z,97378.75
2022-12-29T23:38:53.424Z,97363.19
2022-12-29T23:41:19.792Z,97350.75
2022-12-29T23:43:46.485Z,97340.88
2022-12-29T23:46:14.474Z,97319.88
2022-12-29T23:48:40.971Z,97329.81
2022-12-29T23:51:07.739Z,97313.41
2022-12-29T23:53:38.493Z,97301.31
2022-12-29T23:56:05.535Z,97292.69
2022-12-29T23:58:32.924Z,97316.97
